Amasis — P3LA7 — position and weather

sailwx.info

Track history (hours):
 
Tides and Currents Weather Stations Pressure Air Temp Water Temp Dewpoint Dewpoint Depression Visibility Wind Speed Wind Dir Waves Ship Positions

Amasis

Last reported at 2018-May-10 13:30 UTC. Time now 2018-Jun-20 17:27 UTC.
Position N 50°10' W 000°06'.
Warning: this ship's position is 41 days out of date.

Length 195.7 m; beam 32.3 m; draft 11.5 m.

Type: Ship (hazmat cat A). MMSI: 212333000.

Date/timePositionNaut miles runAvg speedWind from/ knotsBaromVisibWave heightAir tempDewpointWater temp
2018-May-10 13:30N 50°10' W 000°06'5 9.3
2018-May-10 13:00N 50°15' W 000°05'510.9
2018-May-10 12:30N 50°20' W 000°05'511.0
2018-May-10 12:00N 50°26' W 000°05'510.8
2018-May-10 11:30N 50°28' E 000°03'611.3
2018-May-10 11:00N 50°30' E 000°12'611.0
2018-May-10 10:30N 50°31' E 000°20'612.5
2018-May-10 10:00N 50°33' E 000°29'612.5
2018-May-10 09:30N 50°36' E 000°38'612.3
2018-May-10 09:00N 50°39' E 000°46'612.2
2018-May-10 08:30N 50°42' E 000°54'612.5
2018-May-10 08:00N 50°46' E 001°03'912.9
2018-May-10 07:17N 50°51' E 001°15'412.8
2018-May-10 06:58N 50°54' E 001°19'612.5
2018-May-10 06:30N 50°59' E 001°24'612.9
2018-May-10 06:00N 51°04' E 001°31'611.4
2018-May-10 05:30N 51°06' E 001°39'510.6
2018-May-10 05:00N 51°03' E 001°46'4 7.6
2018-May-10 04:30N 51°03' E 001°52'713.3
2018-May-10 04:00N 51°03' E 002°02'510.4
2018-May-10 03:30N 51°01' E 002°10'1 0.9
2018-May-10 02:46N 51°01' E 002°11'0 0.0
2018-May-10 02:01N 51°01' E 002°11'0 0.0
2018-May-10 01:50N 51°01' E 002°11'0 0.0
2018-May-10 01:29N 51°01' E 002°11'0 0.0
2018-May-10 00:53N 51°01' E 002°11'0 0.0
2018-May-10 00:28N 51°01' E 002°11'0 0.0
2018-May-09 23:58N 51°01' E 002°11'0 0.0
2018-May-09 23:28N 51°01' E 002°11'0 0.0
2018-May-09 22:58N 51°01' E 002°11'0 0.0
2018-May-09 22:04N 51°01' E 002°11'0 0.0
2018-May-09 21:58N 51°01' E 002°11'0 0.0
2018-May-09 21:28N 51°01' E 002°11'0 0.0
2018-May-09 20:55N 51°01' E 002°11'0 0.0
2018-May-09 20:28N 51°01' E 002°11'0 0.0
2018-May-09 19:58N 51°01' E 002°11'0 0.0
2018-May-09 19:28N 51°01' E 002°11'0 0.0
2018-May-09 18:58N 51°01' E 002°11'0 0.0
2018-May-09 18:28N 51°01' E 002°11'0 0.0
2018-May-09 17:58N 51°01' E 002°11'0 0.0
2018-May-09 17:19N 51°01' E 002°11'0 0.0
2018-May-09 16:58N 51°01' E 002°11'0 0.0
2018-May-09 16:28N 51°01' E 002°11'0 0.0
2018-May-09 15:58N 51°01' E 002°11'0 0.0
2018-May-09 15:25N 51°01' E 002°11'0 0.0
2018-May-09 14:58N 51°01' E 002°11'0 0.0
2018-May-09 14:22N 51°01' E 002°11'0 0.0
2018-May-09 13:28N 51°01' E 002°11'0 0.0
2018-May-09 11:40N 51°01' E 002°11'0 0.0
2018-May-09 11:16N 51°01' E 002°11'0 0.0
2018-May-09 10:58N 51°01' E 002°11'0 0.0
2018-May-09 10:22N 51°01' E 002°11'0 0.0
2018-May-09 09:52N 51°01' E 002°11'0 0.0
2018-May-09 07:04N 51°01' E 002°11'0 0.0
2018-May-09 06:52N 51°01' E 002°11'0 0.0
2018-May-09 06:16N 51°01' E 002°11'0 0.0
2018-May-09 05:52N 51°01' E 002°11'0 0.0
2018-May-09 05:29N 51°01' E 002°11'0 0.9
2018-May-09 04:59N 51°01' E 002°10'711.4
2018-May-09 04:22N 51°02' E 001°59'613.0
2018-May-09 03:56N 51°02' E 001°50'2 4.5
2018-May-09 03:30N 51°03' E 001°47'0 0.4
2018-May-09 03:00N 51°03' E 001°47'1 1.4
2018-May-09 02:30N 51°03' E 001°46'3 5.7
2018-May-09 02:00N 51°03' E 001°42'4 7.9
2018-May-09 01:30N 51°06' E 001°37'3 6.7
2018-May-09 01:00N 51°09' E 001°40'4 7.4
2018-May-09 00:30N 51°11' E 001°44'4 7.5
2018-May-09 00:00N 51°14' E 001°48'4 7.7
2018-May-08 23:30N 51°17' E 001°52'4 7.5
2018-May-08 23:00N 51°20' E 001°55'3 6.7
2018-May-08 22:30N 51°23' E 001°58'3 6.3
2018-May-08 22:00N 51°25' E 002°02'611.6
2018-May-08 21:30N 51°23' E 002°10'612.4
2018-May-08 21:01N 51°21' E 002°20'714.9
2018-May-08 20:30N 51°24' E 002°30'714.3
2018-May-08 20:00N 51°29' E 002°39'510.6
2018-May-08 19:30N 51°31' E 002°47'1 1.7
2018-May-08 19:00N 51°31' E 002°46'1 1.7
2018-May-08 18:30N 51°30' E 002°45'1 1.6
2018-May-08 18:00N 51°30' E 002°44'1 1.3
2018-May-08 17:30N 51°29' E 002°43'0 0.9
2018-May-08 17:00N 51°29' E 002°43'0 0.6
2018-May-08 16:30N 51°28' E 002°43'1 1.6
2018-May-08 15:59N 51°28' E 002°42'5 9.7
2018-May-08 15:29N 51°23' E 002°43'4 8.6
2018-May-08 15:00N 51°22' E 002°49'917.6
2018-May-08 14:30N 51°24' E 003°03'917.5
2018-May-08 14:00N 51°24' E 003°17'916.7
2018-May-08 13:28N 51°26' E 003°31'511.0
2018-May-08 13:00N 51°27' E 003°39'713.3
2018-May-08 12:30N 51°22' E 003°46'713.8
2018-May-08 12:01N 51°23' E 003°57'3 6.5
2018-May-08 11:30N 51°23' E 004°02'613.0
2018-May-08 11:00N 51°24' E 004°12'612.0
2018-May-08 10:30N 51°18' E 004°16'1 2.3
2018-May-08 10:00N 51°17' E 004°15'0 0.0
2018-May-08 09:28N 51°17' E 004°15'0 0.0
2018-May-08 08:55N 51°17' E 004°15'0 0.0
2018-May-08 08:22N 51°17' E 004°15'0 0.0
2018-May-08 07:58N 51°17' E 004°15'0 0.0
2018-May-08 07:28N 51°17' E 004°15'0 0.0
2018-May-08 06:52N 51°17' E 004°15'0 0.0
2018-May-08 06:28N 51°17' E 004°15'0 0.0
2018-May-08 05:55N 51°17' E 004°15'0 0.0
2018-May-08 05:25N 51°17' E 004°15'0 0.0
2018-May-08 04:58N 51°17' E 004°15'0 0.0
2018-May-08 04:25N 51°17' E 004°15'0 0.0
2018-May-08 03:58N 51°17' E 004°15'0 0.0
2018-May-08 03:28N 51°17' E 004°15'0 0.0
2018-May-08 02:58N 51°17' E 004°15'0 0.0
2018-May-08 02:28N 51°17' E 004°15'0 0.1
2018-May-08 01:58N 51°17' E 004°15'0 0.0
2018-May-08 01:25N 51°17' E 004°15'0 0.1
2018-May-08 00:58N 51°17' E 004°15'0 0.0
2018-May-08 00:28N 51°17' E 004°15'0 0.0
2018-May-07 23:58N 51°17' E 004°15'0 0.0
2018-May-07 23:28N 51°17' E 004°15'0 0.0
2018-May-07 22:58N 51°17' E 004°15'0 0.0
2018-May-07 22:25N 51°17' E 004°15'0 0.0
2018-May-07 21:55N 51°17' E 004°15'0 0.0
2018-May-07 21:22N 51°17' E 004°15'0 0.0
2018-May-07 20:55N 51°17' E 004°15'0 0.0
2018-May-07 20:28N 51°17' E 004°15'0 0.0
2018-May-07 19:58N 51°17' E 004°15'0 0.0
2018-May-07 19:25N 51°17' E 004°15'0 0.0
2018-May-07 18:58N 51°17' E 004°15'0 0.0
2018-May-07 18:28N 51°17' E 004°15'0 0.0
2018-May-07 17:58N 51°17' E 004°15'0 0.0
2018-May-07 17:28N 51°17' E 004°15'0 0.0
2018-May-07 16:58N 51°17' E 004°15'0 0.0
2018-May-07 16:22N 51°17' E 004°15'0 0.0
2018-May-07 15:58N 51°17' E 004°15'0 0.0
2018-May-07 15:28N 51°17' E 004°15'0 0.0
2018-May-07 14:58N 51°17' E 004°15'0 0.0
2018-May-07 14:25N 51°17' E 004°15'0 0.0
2018-May-07 13:58N 51°17' E 004°15'0 0.1
2018-May-07 13:28N 51°17' E 004°15'0 0.1
2018-May-07 12:43N 51°17' E 004°15'0 0.0
2018-May-07 12:28N 51°17' E 004°15'0 0.0
2018-May-07 11:58N 51°17' E 004°15'0 0.0
2018-May-07 11:28N 51°17' E 004°15'0 0.0
2018-May-07 10:58N 51°17' E 004°15'0 0.0
2018-May-07 10:28N 51°17' E 004°15'0 0.0
2018-May-07 09:58N 51°17' E 004°15'0 0.0
2018-May-07 09:25N 51°17' E 004°15'0 0.0
2018-May-07 08:55N 51°17' E 004°15'0 0.0
2018-May-07 08:28N 51°17' E 004°15'0 0.0
2018-May-07 07:58N 51°17' E 004°15'0 0.0
2018-May-07 07:28N 51°17' E 004°15'0 0.8
2018-May-07 07:00N 51°18' E 004°16'3 5.5
2018-May-07 06:30N 51°20' E 004°16'5 9.5
2018-May-07 06:00N 51°24' E 004°11'510.9
2018-May-07 05:30N 51°23' E 004°02'3 6.6
2018-May-07 05:01N 51°23' E 003°57'713.7
2018-May-07 04:30N 51°21' E 003°46'714.0
2018-May-07 04:00N 51°26' E 003°38'611.2
2018-May-07 03:29N 51°25' E 003°29'918.2
2018-May-07 03:00N 51°25' E 003°15'917.1
2018-May-07 02:29N 51°24' E 003°00'816.3
2018-May-07 02:00N 51°21' E 002°48'611.6
2018-May-07 01:30N 51°22' E 002°39'4 7.9
2018-May-07 01:00N 51°22' E 002°33'3 5.6
2018-May-07 00:31N 51°25' E 002°31'2 4.6
2018-May-06 23:58N 51°26' E 002°34'1 3.1
2018-May-06 23:29N 51°27' E 002°36'1 1.5
2018-May-06 22:58N 51°28' E 002°37'1 1.3
2018-May-06 22:30N 51°28' E 002°38'1 1.1
2018-May-06 22:00N 51°29' E 002°38'0 0.8
2018-May-06 21:30N 51°29' E 002°39'0 0.6
2018-May-06 21:00N 51°29' E 002°39'0 0.4
2018-May-06 20:30N 51°29' E 002°40'0 0.2
2018-May-06 20:00N 51°29' E 002°40'0 0.1
2018-May-06 19:31N 51°29' E 002°40'  
Track history (hours):
 
Tides and Currents Weather Stations Pressure Air Temp Water Temp Dewpoint Dewpoint Depression Visibility Wind Speed Wind Dir Waves Ship Positions

Amasis

Last reported at 2018-May-10 13:30 UTC. Time now 2018-Jun-20 17:27 UTC.
Position N 50°10' W 000°06'.
Warning: this ship's position is 41 days out of date.

Length 195.7 m; beam 32.3 m; draft 11.5 m.

Type: Ship (hazmat cat A). MMSI: 212333000.

Date/timePositionNaut miles runAvg speedWind from/ knotsBaromVisibWave heightAir tempDewpointWater temp
2018-May-10 13:30N 50°10' W 000°06'5 9.3
2018-May-10 13:00N 50°15' W 000°05'510.9
2018-May-10 12:30N 50°20' W 000°05'511.0
2018-May-10 12:00N 50°26' W 000°05'510.8
2018-May-10 11:30N 50°28' E 000°03'611.3
2018-May-10 11:00N 50°30' E 000°12'611.0
2018-May-10 10:30N 50°31' E 000°20'612.5
2018-May-10 10:00N 50°33' E 000°29'612.5
2018-May-10 09:30N 50°36' E 000°38'612.3
2018-May-10 09:00N 50°39' E 000°46'612.2
2018-May-10 08:30N 50°42' E 000°54'612.5
2018-May-10 08:00N 50°46' E 001°03'912.9
2018-May-10 07:17N 50°51' E 001°15'412.8
2018-May-10 06:58N 50°54' E 001°19'612.5
2018-May-10 06:30N 50°59' E 001°24'612.9
2018-May-10 06:00N 51°04' E 001°31'611.4
2018-May-10 05:30N 51°06' E 001°39'510.6
2018-May-10 05:00N 51°03' E 001°46'4 7.6
2018-May-10 04:30N 51°03' E 001°52'713.3
2018-May-10 04:00N 51°03' E 002°02'510.4
2018-May-10 03:30N 51°01' E 002°10'1 0.9
2018-May-10 02:46N 51°01' E 002°11'0 0.0
2018-May-10 02:01N 51°01' E 002°11'0 0.0
2018-May-10 01:50N 51°01' E 002°11'0 0.0
2018-May-10 01:29N 51°01' E 002°11'0 0.0
2018-May-10 00:53N 51°01' E 002°11'0 0.0
2018-May-10 00:28N 51°01' E 002°11'0 0.0
2018-May-09 23:58N 51°01' E 002°11'0 0.0
2018-May-09 23:28N 51°01' E 002°11'0 0.0
2018-May-09 22:58N 51°01' E 002°11'0 0.0
2018-May-09 22:04N 51°01' E 002°11'0 0.0
2018-May-09 21:58N 51°01' E 002°11'0 0.0
2018-May-09 21:28N 51°01' E 002°11'0 0.0
2018-May-09 20:55N 51°01' E 002°11'0 0.0
2018-May-09 20:28N 51°01' E 002°11'0 0.0
2018-May-09 19:58N 51°01' E 002°11'0 0.0
2018-May-09 19:28N 51°01' E 002°11'0 0.0
2018-May-09 18:58N 51°01' E 002°11'0 0.0
2018-May-09 18:28N 51°01' E 002°11'0 0.0
2018-May-09 17:58N 51°01' E 002°11'0 0.0
2018-May-09 17:19N 51°01' E 002°11'0 0.0
2018-May-09 16:58N 51°01' E 002°11'0 0.0
2018-May-09 16:28N 51°01' E 002°11'0 0.0
2018-May-09 15:58N 51°01' E 002°11'0 0.0
2018-May-09 15:25N 51°01' E 002°11'0 0.0
2018-May-09 14:58N 51°01' E 002°11'0 0.0
2018-May-09 14:22N 51°01' E 002°11'0 0.0
2018-May-09 13:28N 51°01' E 002°11'0 0.0
2018-May-09 11:40N 51°01' E 002°11'0 0.0
2018-May-09 11:16N 51°01' E 002°11'0 0.0
2018-May-09 10:58N 51°01' E 002°11'0 0.0
2018-May-09 10:22N 51°01' E 002°11'0 0.0
2018-May-09 09:52N 51°01' E 002°11'0 0.0
2018-May-09 07:04N 51°01' E 002°11'0 0.0
2018-May-09 06:52N 51°01' E 002°11'0 0.0
2018-May-09 06:16N 51°01' E 002°11'0 0.0
2018-May-09 05:52N 51°01' E 002°11'0 0.0
2018-May-09 05:29N 51°01' E 002°11'0 0.9
2018-May-09 04:59N 51°01' E 002°10'711.4
2018-May-09 04:22N 51°02' E 001°59'613.0
2018-May-09 03:56N 51°02' E 001°50'2 4.5
2018-May-09 03:30N 51°03' E 001°47'0 0.4
2018-May-09 03:00N 51°03' E 001°47'1 1.4
2018-May-09 02:30N 51°03' E 001°46'3 5.7
2018-May-09 02:00N 51°03' E 001°42'4 7.9
2018-May-09 01:30N 51°06' E 001°37'3 6.7
2018-May-09 01:00N 51°09' E 001°40'4 7.4
2018-May-09 00:30N 51°11' E 001°44'4 7.5
2018-May-09 00:00N 51°14' E 001°48'4 7.7
2018-May-08 23:30N 51°17' E 001°52'4 7.5
2018-May-08 23:00N 51°20' E 001°55'3 6.7
2018-May-08 22:30N 51°23' E 001°58'3 6.3
2018-May-08 22:00N 51°25' E 002°02'611.6
2018-May-08 21:30N 51°23' E 002°10'612.4
2018-May-08 21:01N 51°21' E 002°20'714.9
2018-May-08 20:30N 51°24' E 002°30'714.3
2018-May-08 20:00N 51°29' E 002°39'510.6
2018-May-08 19:30N 51°31' E 002°47'1 1.7
2018-May-08 19:00N 51°31' E 002°46'1 1.7
2018-May-08 18:30N 51°30' E 002°45'1 1.6
2018-May-08 18:00N 51°30' E 002°44'1 1.3
2018-May-08 17:30N 51°29' E 002°43'0 0.9
2018-May-08 17:00N 51°29' E 002°43'0 0.6
2018-May-08 16:30N 51°28' E 002°43'1 1.6
2018-May-08 15:59N 51°28' E 002°42'5 9.7
2018-May-08 15:29N 51°23' E 002°43'4 8.6
2018-May-08 15:00N 51°22' E 002°49'917.6
2018-May-08 14:30N 51°24' E 003°03'917.5
2018-May-08 14:00N 51°24' E 003°17'916.7
2018-May-08 13:28N 51°26' E 003°31'511.0
2018-May-08 13:00N 51°27' E 003°39'713.3
2018-May-08 12:30N 51°22' E 003°46'713.8
2018-May-08 12:01N 51°23' E 003°57'3 6.5
2018-May-08 11:30N 51°23' E 004°02'613.0
2018-May-08 11:00N 51°24' E 004°12'612.0
2018-May-08 10:30N 51°18' E 004°16'1 2.3
2018-May-08 10:00N 51°17' E 004°15'0 0.0
2018-May-08 09:28N 51°17' E 004°15'0 0.0
2018-May-08 08:55N 51°17' E 004°15'0 0.0
2018-May-08 08:22N 51°17' E 004°15'0 0.0
2018-May-08 07:58N 51°17' E 004°15'0 0.0
2018-May-08 07:28N 51°17' E 004°15'0 0.0
2018-May-08 06:52N 51°17' E 004°15'0 0.0
2018-May-08 06:28N 51°17' E 004°15'0 0.0
2018-May-08 05:55N 51°17' E 004°15'0 0.0
2018-May-08 05:25N 51°17' E 004°15'0 0.0
2018-May-08 04:58N 51°17' E 004°15'0 0.0
2018-May-08 04:25N 51°17' E 004°15'0 0.0
2018-May-08 03:58N 51°17' E 004°15'0 0.0
2018-May-08 03:28N 51°17' E 004°15'0 0.0
2018-May-08 02:58N 51°17' E 004°15'0 0.0
2018-May-08 02:28N 51°17' E 004°15'0 0.1
2018-May-08 01:58N 51°17' E 004°15'0 0.0
2018-May-08 01:25N 51°17' E 004°15'0 0.1
2018-May-08 00:58N 51°17' E 004°15'0 0.0
2018-May-08 00:28N 51°17' E 004°15'0 0.0
2018-May-07 23:58N 51°17' E 004°15'0 0.0
2018-May-07 23:28N 51°17' E 004°15'0 0.0
2018-May-07 22:58N 51°17' E 004°15'0 0.0
2018-May-07 22:25N 51°17' E 004°15'0 0.0
2018-May-07 21:55N 51°17' E 004°15'0 0.0
2018-May-07 21:22N 51°17' E 004°15'0 0.0
2018-May-07 20:55N 51°17' E 004°15'0 0.0
2018-May-07 20:28N 51°17' E 004°15'0 0.0
2018-May-07 19:58N 51°17' E 004°15'0 0.0
2018-May-07 19:25N 51°17' E 004°15'0 0.0
2018-May-07 18:58N 51°17' E 004°15'0 0.0
2018-May-07 18:28N 51°17' E 004°15'0 0.0
2018-May-07 17:58N 51°17' E 004°15'0 0.0
2018-May-07 17:28N 51°17' E 004°15'0 0.0
2018-May-07 16:58N 51°17' E 004°15'0 0.0
2018-May-07 16:22N 51°17' E 004°15'0 0.0
2018-May-07 15:58N 51°17' E 004°15'0 0.0
2018-May-07 15:28N 51°17' E 004°15'0 0.0
2018-May-07 14:58N 51°17' E 004°15'0 0.0
2018-May-07 14:25N 51°17' E 004°15'0 0.0
2018-May-07 13:58N 51°17' E 004°15'0 0.1
2018-May-07 13:28N 51°17' E 004°15'0 0.1
2018-May-07 12:43N 51°17' E 004°15'0 0.0
2018-May-07 12:28N 51°17' E 004°15'0 0.0
2018-May-07 11:58N 51°17' E 004°15'0 0.0
2018-May-07 11:28N 51°17' E 004°15'0 0.0
2018-May-07 10:58N 51°17' E 004°15'0 0.0
2018-May-07 10:28N 51°17' E 004°15'0 0.0
2018-May-07 09:58N 51°17' E 004°15'0 0.0
2018-May-07 09:25N 51°17' E 004°15'0 0.0
2018-May-07 08:55N 51°17' E 004°15'0 0.0
2018-May-07 08:28N 51°17' E 004°15'0 0.0
2018-May-07 07:58N 51°17' E 004°15'0 0.0
2018-May-07 07:28N 51°17' E 004°15'0 0.8
2018-May-07 07:00N 51°18' E 004°16'3 5.5
2018-May-07 06:30N 51°20' E 004°16'5 9.5
2018-May-07 06:00N 51°24' E 004°11'510.9
2018-May-07 05:30N 51°23' E 004°02'3 6.6
2018-May-07 05:01N 51°23' E 003°57'713.7
2018-May-07 04:30N 51°21' E 003°46'714.0
2018-May-07 04:00N 51°26' E 003°38'611.2
2018-May-07 03:29N 51°25' E 003°29'918.2
2018-May-07 03:00N 51°25' E 003°15'917.1
2018-May-07 02:29N 51°24' E 003°00'816.3
2018-May-07 02:00N 51°21' E 002°48'611.6
2018-May-07 01:30N 51°22' E 002°39'4 7.9
2018-May-07 01:00N 51°22' E 002°33'3 5.6
2018-May-07 00:31N 51°25' E 002°31'2 4.6
2018-May-06 23:58N 51°26' E 002°34'1 3.1
2018-May-06 23:29N 51°27' E 002°36'1 1.5
2018-May-06 22:58N 51°28' E 002°37'1 1.3
2018-May-06 22:30N 51°28' E 002°38'1 1.1
2018-May-06 22:00N 51°29' E 002°38'0 0.8
2018-May-06 21:30N 51°29' E 002°39'0 0.6
2018-May-06 21:00N 51°29' E 002°39'0 0.4
2018-May-06 20:30N 51°29' E 002°40'0 0.2
2018-May-06 20:00N 51°29' E 002°40'0 0.1
2018-May-06 19:31N 51°29' E 002°40'  

Dump ship's entire track history